< < Back
Terminal Aerodrome Forecast


Current Version              Previous Versions:   1  2  3  4  5  6  7  8  9  

Terminal Aerodrome Forecast

562
FTUS42 KILM 302300
TAFILM
TAF
KILM 302324Z 3100/3124 03005KT P6SM SCT025 SCT040 BKN120
     FM311400 02010KT P6SM BKN040
     FM311900 35008KT P6SM SCT040=

Latest METAR

026
SAUS70 KWBC 310900 RRF
MTRILM
METAR KILM 310853Z AUTO 02006KT 10SM CLR 11/09 A2989 RMK AO2 SLP122
T01060094 58010


USA.gov is the U.S. government's official web portal to all federal, state and local government web resources and services.